Time;durP1;ratioP1;P1;durP2;ratioP2;P2;SDS_P1;SDS_P2;PMS_P1;PMS_P2;Temp;Humidity;BMP_temperature;BMP_pressure;BME280_temperature;BME280_humidity;BME280_pressure;Samples;Min_cycle;Max_cycle;Signal;HPM_P1;HPM_P2
2023/05/22 00:03:56;;;;;;;53.55;36.10;;;;;;;19.06;100.00;100346.13;8391557;28;20043;-60
2023/05/22 00:07:57;;;;;;;56.97;35.58;;;;;;;19.07;100.00;100350.56;8391693;28;20033;-60
2023/05/22 00:11:57;;;;;;;57.80;36.00;;;;;;;19.08;100.00;100348.66;8391439;28;20067;-60
2023/05/22 00:15:58;;;;;;;56.30;36.30;;;;;;;18.99;100.00;100338.88;8390235;28;20040;-60
2023/05/22 00:20:04;;;;;;;64.32;38.90;;;;;;;19.14;100.00;100340.50;8389903;28;20049;-60
2023/05/22 00:24:05;;;;;;;64.35;38.85;;;;;;;19.15;100.00;100333.97;8374280;28;20036;-60
2023/05/22 00:28:05;;;;;;;65.53;39.80;;;;;;;19.20;100.00;100336.97;8406868;28;20131;-60
2023/05/22 00:32:06;;;;;;;61.72;39.40;;;;;;;19.09;100.00;100334.75;8357600;28;20064;-60
2023/05/22 00:36:07;;;;;;;64.10;39.92;;;;;;;19.02;100.00;100333.88;8357492;28;20412;-60
2023/05/22 00:40:08;;;;;;;63.45;40.03;;;;;;;18.99;100.00;100325.19;8370118;28;20061;-60
2023/05/22 00:44:09;;;;;;;58.63;37.58;;;;;;;18.99;100.00;100323.31;8374372;28;20119;-60
2023/05/22 00:48:11;;;;;;;59.80;37.25;;;;;;;18.86;100.00;100312.25;8372187;28;20407;-60
2023/05/22 00:52:13;;;;;;;57.78;39.03;;;;;;;18.74;100.00;100323.94;8373152;28;20098;-60
2023/05/22 00:56:14;;;;;;;66.97;38.97;;;;;;;18.71;100.00;100330.66;8366912;28;20040;-61
2023/05/22 01:00:15;;;;;;;62.28;39.42;;;;;;;18.66;100.00;100338.63;8373718;28;20499;-60
2023/05/22 01:04:17;;;;;;;66.40;39.17;;;;;;;18.59;100.00;100337.72;8373295;28;20059;-60
2023/05/22 01:08:17;;;;;;;61.63;39.75;;;;;;;18.54;100.00;100333.88;8392176;28;20097;-60
2023/05/22 01:12:58;;;;;;;64.50;40.97;;;;;;;18.44;100.00;100333.34;8340094;28;20094;-60
2023/05/22 01:17:39;;;;;;;64.40;37.35;;;;;;;18.43;100.00;100338.00;8339820;28;20052;-61
2023/05/22 01:22:06;;;;;;;62.85;38.97;;;;;;;18.45;100.00;100340.53;8346562;28;20044;-61
2023/05/22 01:31:02;;;;;;;54.58;34.40;;;;;;;18.15;100.00;100337.03;8400899;27;20405;-60
2023/05/22 01:35:07;;;;;;;58.97;35.88;;;;;;;18.14;100.00;100345.44;8399641;27;20037;-60
2023/05/22 01:39:08;;;;;;;;;;;;;;;17.93;100.00;100340.75;8380645;28;20509;-60
2023/05/22 01:43:08;;;;;;;59.63;34.20;;;;;;;17.94;100.00;100344.34;8367248;28;19920;-60
2023/05/22 01:47:09;;;;;;;56.40;35.70;;;;;;;17.94;100.00;100336.97;8367509;28;20032;-61
2023/05/22 01:51:16;;;;;;;57.45;36.40;;;;;;;17.93;100.00;100328.97;8366201;28;20051;-60
2023/05/22 01:55:28;;;;;;;57.63;35.38;;;;;;;17.92;100.00;100333.59;8367924;28;20044;-60
2023/05/22 01:59:36;;;;;;;57.72;35.50;;;;;;;17.97;100.00;100325.66;8363021;28;20039;-60
2023/05/22 02:03:39;;;;;;;57.60;35.30;;;;;;;17.92;100.00;100332.72;8350581;28;20471;-60
2023/05/22 02:07:41;;;;;;;56.42;36.58;;;;;;;17.93;100.00;100335.28;8355030;28;20037;-59
2023/05/22 02:11:42;;;;;;;58.22;34.45;;;;;;;17.91;100.00;100333.78;8366775;28;20044;-60
2023/05/22 02:15:45;;;;;;;53.78;34.95;;;;;;;17.79;100.00;100327.97;8367385;28;20094;-60
2023/05/22 02:19:45;;;;;;;59.53;37.15;;;;;;;17.68;100.00;100331.16;8366941;28;20070;-60
2023/05/22 02:23:46;;;;;;;57.50;36.78;;;;;;;17.58;100.00;100325.16;8366529;28;20118;-60
2023/05/22 02:27:48;;;;;;;61.58;36.10;;;;;;;17.59;100.00;100332.31;8366679;28;20045;-60
2023/05/22 02:31:49;;;;;;;59.35;36.70;;;;;;;17.61;100.00;100335.72;8379794;27;20131;-60
2023/05/22 02:35:49;;;;;;;62.83;36.90;;;;;;;17.55;100.00;100328.28;8382851;27;20048;-61
2023/05/22 02:39:50;;;;;;;61.67;38.33;;;;;;;17.48;100.00;100324.59;8358755;27;20052;-60
2023/05/22 02:43:50;;;;;;;60.53;38.92;;;;;;;17.51;100.00;100326.97;8344088;28;20060;-60
2023/05/22 02:47:51;;;;;;;68.18;39.92;;;;;;;17.49;100.00;100324.41;8342736;28;20453;-60
2023/05/22 02:51:51;;;;;;;65.93;40.47;;;;;;;17.53;100.00;100322.13;8360336;28;20404;-61
2023/05/22 02:55:52;;;;;;;67.30;41.33;;;;;;;17.48;100.00;100313.69;8327444;28;20042;-62
2023/05/22 02:59:52;;;;;;;76.85;40.47;;;;;;;17.39;100.00;100312.88;8337393;28;20596;-62
2023/05/22 03:03:53;;;;;;;70.80;41.30;;;;;;;17.36;100.00;100309.69;8327230;28;20095;-63
2023/05/22 03:07:54;;;;;;;62.40;40.38;;;;;;;17.35;100.00;100313.44;8318808;28;20041;-62
2023/05/22 03:11:55;;;;;;;67.47;41.88;;;;;;;17.32;100.00;100302.88;8343324;28;20851;-62
2023/05/22 03:15:55;;;;;;;70.78;40.58;;;;;;;17.36;100.00;100298.75;8344991;28;20037;-62
2023/05/22 03:19:56;;;;;;;68.57;40.60;;;;;;;17.38;100.00;100304.84;8343549;28;20047;-62
2023/05/22 03:23:57;;;;;;;64.68;40.45;;;;;;;17.33;100.00;100305.44;8342800;28;20037;-62
2023/05/22 03:27:57;;;;;;;69.95;41.50;;;;;;;17.23;100.00;100304.03;8342984;28;20527;-62
2023/05/22 03:32:02;;;;;;;64.15;39.08;;;;;;;17.24;100.00;100305.72;8358536;28;20045;-62
2023/05/22 03:36:03;;;;;;;68.57;40.75;;;;;;;17.15;100.00;100313.19;8345347;28;20044;-62
2023/05/22 03:40:04;;;;;;;63.25;37.72;;;;;;;17.14;100.00;100307.91;8339619;28;20041;-62
2023/05/22 03:44:05;;;;;;;64.47;40.50;;;;;;;17.15;100.00;100315.06;8340262;28;20139;-62
2023/05/22 03:48:09;;;;;;;71.25;38.13;;;;;;;17.15;100.00;100318.66;8342121;28;20052;-62
2023/05/22 03:52:10;;;;;;;65.90;39.80;;;;;;;17.04;100.00;100318.22;8340909;28;20048;-62
2023/05/22 03:56:11;;;;;;;68.53;39.30;;;;;;;17.04;100.00;100331.88;8342211;28;20048;-62
2023/05/22 04:00:12;;;;;;;70.88;39.55;;;;;;;17.10;100.00;100320.22;8334533;28;20523;-62
2023/05/22 04:04:16;;;;;;;69.55;41.33;;;;;;;17.12;100.00;100318.16;8360070;28;20211;-62
2023/05/22 04:08:17;;;;;;;66.22;38.08;;;;;;;17.10;100.00;100314.75;8348917;28;20037;-62
2023/05/22 04:12:17;;;;;;;66.78;39.58;;;;;;;17.17;100.00;100321.19;8359216;28;20037;-62
2023/05/22 04:16:18;;;;;;;68.65;39.22;;;;;;;17.18;100.00;100322.88;8322574;28;20107;-62
2023/05/22 04:20:18;;;;;;;66.20;38.80;;;;;;;17.14;100.00;100327.03;8320106;28;20034;-62
2023/05/22 04:24:21;;;;;;;67.50;39.67;;;;;;;17.17;100.00;100338.41;8318589;28;20063;-62
2023/05/22 04:28:22;;;;;;;79.65;40.88;;;;;;;17.15;100.00;100334.19;8387315;28;20037;-62
2023/05/22 04:32:22;;;;;;;70.82;40.45;;;;;;;17.14;100.00;100337.94;8341524;28;20075;-62
2023/05/22 04:36:24;;;;;;;67.55;39.47;;;;;;;17.15;100.00;100345.09;8320097;28;20065;-62
2023/05/22 04:40:25;;;;;;;78.78;41.47;;;;;;;17.15;100.00;100350.56;8341082;28;20049;-62
2023/05/22 04:44:29;;;;;;;68.53;39.72;;;;;;;17.17;100.00;100352.06;8340969;28;20033;-62
2023/05/22 04:48:29;;;;;;;68.38;39.83;;;;;;;17.23;100.00;100353.22;8353667;28;20484;-61
2023/05/22 04:52:30;;;;;;;66.75;39.70;;;;;;;17.24;100.00;100354.91;8354356;28;20041;-61
2023/05/22 04:56:30;;;;;;;61.80;38.13;;;;;;;17.36;100.00;100353.41;8353286;28;20407;-61
2023/05/22 05:00:31;;;;;;;61.58;37.05;;;;;;;17.36;100.00;100356.16;8353837;28;20044;-61
2023/05/22 05:04:32;;;;;;;66.78;38.45;;;;;;;17.39;100.00;100353.88;8349372;28;20041;-61
2023/05/22 05:08:33;;;;;;;71.30;37.72;;;;;;;17.41;100.00;100356.41;8343759;28;20096;-61
2023/05/22 05:12:33;;;;;;;67.80;38.17;;;;;;;17.41;100.00;100356.41;8369978;28;20267;-61
2023/05/22 05:16:34;;;;;;;73.75;39.88;;;;;;;17.49;100.00;100356.38;8338467;28;20037;-62
2023/05/22 05:20:35;;;;;;;68.50;39.63;;;;;;;17.54;100.00;100367.59;8350649;28;20469;-61
2023/05/22 05:24:35;;;;;;;71.97;41.90;;;;;;;17.53;100.00;100363.13;8334217;28;20708;-61
2023/05/22 05:28:36;;;;;;;86.28;43.30;;;;;;;17.57;100.00;100367.22;8328041;28;20043;-61
2023/05/22 05:32:38;;;;;;;84.60;43.58;;;;;;;17.66;100.00;100366.09;8305471;28;20046;-61
2023/05/22 05:36:59;;;;;;;91.75;44.00;;;;;;;17.85;100.00;100368.22;8345099;28;20055;-62
2023/05/22 05:41:00;;;;;;;86.75;45.30;;;;;;;17.84;100.00;100363.75;8327798;28;20033;-62
2023/05/22 05:45:01;;;;;;;92.70;44.55;;;;;;;17.88;100.00;100370.56;8337376;28;20044;-62
2023/05/22 05:49:10;;;;;;;91.65;45.72;;;;;;;17.94;100.00;100369.81;8302894;28;20528;-62
2023/05/22 05:53:13;;;;;;;93.63;45.47;;;;;;;18.01;100.00;100381.69;8322415;28;20298;-62
2023/05/22 05:57:18;;;;;;;91.30;45.85;;;;;;;18.04;100.00;100374.97;8327476;28;20248;-62
2023/05/22 06:01:19;;;;;;;90.22;45.38;;;;;;;18.11;100.00;100382.22;8317458;28;20044;-62
2023/05/22 06:05:21;;;;;;;92.35;44.92;;;;;;;18.12;100.00;100389.41;8319795;28;20087;-62
2023/05/22 06:09:25;;;;;;;89.20;42.42;;;;;;;18.32;100.00;100393.19;8320227;28;20037;-63
2023/05/22 06:13:46;;;;;;;88.95;44.40;;;;;;;18.50;100.00;100399.13;8338805;28;20044;-62
2023/05/22 06:17:46;;;;;;;92.80;44.17;;;;;;;18.63;100.00;100391.03;8359640;28;20507;-62
2023/05/22 06:21:47;;;;;;;90.97;44.25;;;;;;;18.63;100.00;100396.53;8352435;28;20570;-62
2023/05/22 06:25:48;;;;;;;85.15;43.30;;;;;;;18.68;100.00;100395.94;8342889;28;20090;-62
2023/05/22 06:29:50;;;;;;;79.97;41.67;;;;;;;18.84;100.00;100395.66;8372845;28;20041;-62
2023/05/22 06:33:51;;;;;;;81.13;41.30;;;;;;;18.82;100.00;100403.25;8360933;28;20037;-62
2023/05/22 06:37:52;;;;;;;84.00;41.95;;;;;;;18.98;100.00;100397.50;8355548;28;20053;-62
2023/05/22 06:41:52;;;;;;;80.82;42.08;;;;;;;19.05;100.00;100410.22;8343862;28;20501;-62
2023/05/22 06:45:53;;;;;;;80.15;40.42;;;;;;;19.06;100.00;100411.88;8342796;28;20069;-62
2023/05/22 06:50:09;;;;;;;84.75;40.17;;;;;;;19.02;100.00;100405.13;8343666;28;20512;-62
2023/05/22 06:54:12;;;;;;;88.47;43.70;;;;;;;19.21;100.00;100415.41;8341424;28;20060;-62
2023/05/22 06:58:14;;;;;;;89.07;43.45;;;;;;;19.21;100.00;100415.41;8342047;28;20033;-61
2023/05/22 07:02:15;;;;;;;88.47;44.28;;;;;;;19.24;100.00;100420.47;8326692;28;20052;-61
2023/05/22 07:06:38;;;;;;;89.05;42.53;;;;;;;19.46;100.00;100424.91;8326778;28;20423;-61
2023/05/22 07:10:40;;;;;;;84.53;41.92;;;;;;;19.42;100.00;100434.56;8343419;28;20102;-60
2023/05/22 07:14:41;;;;;;;77.78;41.15;;;;;;;19.52;100.00;100429.59;8374927;28;20561;-60
2023/05/22 07:18:44;;;;;;;83.65;41.67;;;;;;;19.74;100.00;100437.75;8357985;28;20094;-59
2023/05/22 07:22:45;;;;;;;82.45;41.33;;;;;;;19.89;100.00;100431.09;8342685;28;20099;-59
2023/05/22 07:26:47;;;;;;;79.88;41.78;;;;;;;19.85;100.00;100423.47;8342199;28;20568;-59
2023/05/22 07:30:49;;;;;;;84.50;39.45;;;;;;;19.98;100.00;100435.38;8352653;28;20522;-59
2023/05/22 07:34:50;;;;;;;71.70;37.38;;;;;;;20.23;100.00;100428.34;8358823;28;20061;-59
2023/05/22 07:38:51;;;;;;;75.47;39.17;;;;;;;20.03;100.00;100426.53;8344415;28;20040;-59
2023/05/22 07:42:51;;;;;;;75.35;38.05;;;;;;;20.43;100.00;100428.41;8342173;28;20552;-62
2023/05/22 07:46:54;;;;;;;73.43;37.65;;;;;;;20.52;99.90;100440.91;8341928;28;20389;-62
2023/05/22 07:50:55;;;;;;;63.72;32.53;;;;;;;20.52;100.00;100440.91;8341657;28;20094;-62
2023/05/22 07:54:56;;;;;;;74.35;37.78;;;;;;;20.64;97.53;100447.47;8341503;28;20037;-62
2023/05/22 07:58:59;;;;;;;74.88;38.38;;;;;;;20.92;97.44;100450.94;8345444;28;20049;-62
2023/05/22 08:03:00;;;;;;;68.53;37.53;;;;;;;20.91;96.65;100441.00;8357741;28;20488;-62
2023/05/22 08:07:00;;;;;;;76.35;37.90;;;;;;;21.06;96.19;100441.69;8356729;28;20412;-62
2023/05/22 08:11:01;;;;;;;67.22;36.47;;;;;;;21.20;96.31;100437.91;8339502;28;20492;-62
2023/05/22 08:15:02;;;;;;;69.13;36.60;;;;;;;21.23;93.99;100446.56;8340031;28;20120;-62
2023/05/22 08:19:05;;;;;;;75.00;37.97;;;;;;;21.25;95.15;100440.84;8338453;28;20056;-63
2023/05/22 08:23:05;;;;;;;67.38;34.78;;;;;;;21.37;93.04;100444.66;8352162;28;20229;-62
2023/05/22 08:27:06;;;;;;;73.70;36.95;;;;;;;21.02;93.42;100445.91;8349589;28;20072;-62
2023/05/22 08:31:06;;;;;;;70.60;36.97;;;;;;;21.61;93.92;100446.75;8325309;28;20042;-63
2023/05/22 08:35:07;;;;;;;70.03;37.28;;;;;;;21.67;92.79;100451.41;8322403;28;20037;-62
2023/05/22 08:39:09;;;;;;;65.93;37.03;;;;;;;21.81;93.25;100458.63;8329839;28;20029;-63
2023/05/22 08:43:09;;;;;;;69.20;38.70;;;;;;;21.80;91.63;100453.34;8337616;28;20091;-62
2023/05/22 08:47:12;;;;;;;64.15;36.65;;;;;;;21.82;91.09;100453.94;8338841;28;20042;-63
2023/05/22 08:51:18;;;;;;;68.97;36.28;;;;;;;21.55;91.83;100463.25;8338006;28;20116;-63
2023/05/22 08:55:19;;;;;;;68.00;38.08;;;;;;;21.46;93.43;100465.38;8339927;28;20036;-63
2023/05/22 08:59:20;;;;;;;69.15;36.85;;;;;;;21.33;92.94;100463.50;8343146;28;20052;-63
2023/05/22 09:03:21;;;;;;;65.22;36.85;;;;;;;21.48;93.40;100468.78;8355322;28;20033;-63
2023/05/22 09:07:22;;;;;;;68.22;37.20;;;;;;;21.56;91.01;100471.31;8350903;28;20152;-62
2023/05/22 09:11:23;;;;;;;68.85;37.47;;;;;;;21.24;93.85;100478.53;8338759;28;20056;-63
2023/05/22 09:15:28;;;;;;;75.43;39.58;;;;;;;21.38;93.63;100475.78;8340057;28;20115;-63
2023/05/22 09:19:29;;;;;;;69.22;38.05;;;;;;;21.71;90.75;100485.69;8339211;28;20112;-63
2023/05/22 09:23:29;;;;;;;71.70;37.17;;;;;;;21.74;90.41;100474.28;8339216;28;20044;-63
2023/05/22 09:27:30;;;;;;;68.50;36.47;;;;;;;21.78;90.04;100481.09;8339548;28;20062;-62
2023/05/22 09:31:40;;;;;;;67.85;37.70;;;;;;;21.54;89.64;100472.59;8326269;28;20046;-63
2023/05/22 09:35:42;;;;;;;72.28;38.08;;;;;;;21.36;91.56;100475.97;8322461;28;20061;-63
2023/05/22 09:39:45;;;;;;;64.18;36.15;;;;;;;21.40;91.96;100480.00;8334687;28;20053;-63
2023/05/22 09:43:49;;;;;;;61.47;34.42;;;;;;;21.38;89.33;100484.88;8339339;28;20037;-62
2023/05/22 09:47:50;;;;;;;65.32;34.90;;;;;;;21.39;88.21;100481.06;8340511;28;20045;-63
2023/05/22 09:51:53;;;;;;;68.07;39.67;;;;;;;21.43;90.19;100482.31;8344726;28;20530;-63
2023/05/22 09:55:56;;;;;;;76.95;42.45;;;;;;;21.47;90.72;100489.09;8347212;28;20041;-63
2023/05/22 09:59:59;;;;;;;87.53;45.60;;;;;;;21.58;90.13;100491.22;8352439;28;20051;-62
2023/05/22 10:04:03;;;;;;;71.30;41.40;;;;;;;21.61;90.74;100496.28;8361116;28;20407;-63
2023/05/22 10:08:09;;;;;;;86.10;43.45;;;;;;;21.73;89.86;100486.34;8357052;28;20191;-63
2023/05/22 10:12:15;;;;;;;79.03;42.85;;;;;;;21.75;88.99;100497.16;8344956;28;20041;-62
2023/05/22 10:16:16;;;;;;;87.63;44.20;;;;;;;21.72;91.04;100503.91;8344764;28;20067;-63
2023/05/22 10:20:16;;;;;;;73.32;40.05;;;;;;;22.02;87.81;100488.63;8344262;28;20041;-63
2023/05/22 10:24:17;;;;;;;82.10;40.95;;;;;;;22.13;87.93;100504.50;8344944;28;20512;-63
2023/05/22 10:28:26;;;;;;;68.93;39.63;;;;;;;21.84;86.36;100496.75;8344482;28;20055;-62
2023/05/22 10:32:49;;;;;;;69.50;37.85;;;;;;;22.03;87.40;100501.38;8311344;28;20048;-63
2023/05/22 10:37:09;;;;;;;74.67;40.27;;;;;;;21.98;88.77;100498.41;8311568;28;20091;-63
2023/05/22 10:41:10;;;;;;;75.35;39.40;;;;;;;21.83;87.78;100503.28;8331129;28;20091;-62
2023/05/22 10:45:10;;;;;;;77.47;41.33;;;;;;;22.00;87.79;100496.28;8327629;28;20037;-61
2023/05/22 10:49:20;;;;;;;76.47;40.45;;;;;;;21.85;86.15;100486.56;8327349;28;20041;-62
2023/05/22 10:53:25;;;;;;;77.05;37.97;;;;;;;22.32;88.17;100495.34;8338915;28;20379;-62
2023/05/22 10:57:30;;;;;;;73.97;38.72;;;;;;;22.54;82.73;100485.75;8341834;28;20059;-62
2023/05/22 11:01:36;;;;;;;73.07;37.70;;;;;;;22.55;84.26;100479.19;8355258;28;20517;-61
2023/05/22 11:05:51;;;;;;;76.55;39.45;;;;;;;23.31;83.25;100479.16;8326185;28;20038;-61
2023/05/22 11:09:59;;;;;;;74.95;39.15;;;;;;;23.17;81.27;100482.00;8338275;28;20052;-61
2023/05/22 11:14:02;;;;;;;74.63;38.00;;;;;;;24.15;78.82;100481.16;8341345;28;20408;-61
2023/05/22 11:18:04;;;;;;;73.57;38.87;;;;;;;24.91;76.10;100474.06;8342650;28;20040;-62
2023/05/22 11:22:05;;;;;;;73.63;38.58;;;;;;;25.49;74.75;100476.19;8341784;28;20751;-61
2023/05/22 11:26:23;;;;;;;69.30;36.53;;;;;;;25.97;69.56;100474.03;8341613;28;20036;-61
2023/05/22 11:30:25;;;;;;;71.28;37.97;;;;;;;25.62;72.11;100476.81;8333687;28;20033;-61
2023/05/22 11:34:26;;;;;;;73.10;38.10;;;;;;;26.20;73.08;100469.34;8325403;28;20053;-61
2023/05/22 11:38:28;;;;;;;75.75;39.28;;;;;;;26.49;72.29;100468.31;8332493;28;20551;-61
2023/05/22 11:42:31;;;;;;;70.65;38.40;;;;;;;26.02;73.17;100463.09;8340916;28;20099;-61
2023/05/22 11:46:31;;;;;;;77.32;38.20;;;;;;;26.25;72.39;100471.38;8341443;28;20062;-61
2023/05/22 11:50:32;;;;;;;75.90;39.05;;;;;;;26.18;69.92;100460.44;8340660;28;20037;-61
2023/05/22 11:54:32;;;;;;;79.28;38.88;;;;;;;26.54;68.70;100454.56;8358917;28;20041;-61
2023/05/22 11:58:32;;;;;;;77.70;39.92;;;;;;;26.81;69.63;100455.69;8328291;28;20488;-61
2023/05/22 12:02:34;;;;;;;83.25;42.00;;;;;;;26.91;69.49;100459.75;8324765;28;20079;-61
2023/05/22 12:06:35;;;;;;;86.60;41.88;;;;;;;26.47;69.37;100448.31;8324463;28;20420;-61
2023/05/22 12:10:45;;;;;;;80.43;41.65;;;;;;;25.72;71.81;100457.66;8341219;28;20055;-61
2023/05/22 12:14:47;;;;;;;82.32;40.78;;;;;;;25.25;74.38;100447.56;8335677;28;20048;-61
2023/05/22 12:18:51;;;;;;;85.90;41.50;;;;;;;24.81;73.69;100451.66;8353093;28;20128;-61
2023/05/22 12:22:54;;;;;;;78.60;40.75;;;;;;;23.95;76.48;100446.53;8342734;28;20083;-61
2023/05/22 12:26:55;;;;;;;87.63;42.40;;;;;;;24.37;77.32;100443.69;8371801;28;20044;-61
2023/05/22 12:30:56;;;;;;;89.28;42.17;;;;;;;24.69;79.38;100458.19;8324881;28;20501;-61
2023/05/22 12:34:57;;;;;;;86.25;41.15;;;;;;;24.68;76.87;100451.00;8308259;28;20037;-61
2023/05/22 12:38:57;;;;;;;83.25;41.97;;;;;;;24.75;76.82;100451.72;8307170;28;20452;-61
2023/05/22 12:42:57;;;;;;;83.00;42.58;;;;;;;24.80;76.03;100443.59;8306462;28;20137;-61
2023/05/22 12:46:58;;;;;;;87.22;43.22;;;;;;;24.66;78.19;100447.59;8306767;28;20045;-61
2023/05/22 12:50:58;;;;;;;95.03;44.25;;;;;;;24.29;78.32;100448.69;8310449;28;20410;-62
2023/05/22 12:54:59;;;;;;;83.47;42.92;;;;;;;24.62;78.08;100441.69;8327429;28;20132;-59
2023/05/22 12:58:59;;;;;;;86.20;42.60;;;;;;;24.71;77.98;100428.41;8348574;28;20044;-60
2023/05/22 13:03:00;;;;;;;89.03;42.97;;;;;;;24.82;76.14;100425.66;8355728;28;20116;-60
2023/05/22 13:07:01;;;;;;;88.32;42.28;;;;;;;24.57;77.88;100421.31;8340240;28;20033;-60
2023/05/22 13:11:02;;;;;;;96.43;44.95;;;;;;;24.31;76.99;100422.50;8316536;28;20068;-59
2023/05/22 13:15:02;;;;;;;85.78;42.17;;;;;;;24.70;78.10;100421.19;8336194;28;20609;-60
2023/05/22 13:19:03;;;;;;;92.57;42.33;;;;;;;24.69;77.71;100425.00;8314911;28;20038;-60
2023/05/22 13:23:03;;;;;;;87.05;41.35;;;;;;;24.70;78.09;100421.19;8327826;28;20132;-59
2023/05/22 13:27:04;;;;;;;94.72;42.25;;;;;;;24.43;77.08;100422.59;8360925;28;20094;-59
2023/05/22 13:31:05;;;;;;;89.63;41.83;;;;;;;24.71;78.79;100428.41;8326835;28;20094;-59
2023/05/22 13:35:06;;;;;;;90.30;42.75;;;;;;;24.45;77.19;100439.78;8325622;28;20041;-60
2023/05/22 13:39:06;;;;;;;98.47;42.92;;;;;;;24.24;77.61;100431.97;8334963;28;20033;-60
2023/05/22 13:43:07;;;;;;;88.05;40.72;;;;;;;24.24;78.59;100434.75;8335993;28;20332;-60
2023/05/22 13:47:08;;;;;;;95.47;41.65;;;;;;;24.51;78.26;100422.25;8334304;28;20559;-62
2023/05/22 13:51:08;;;;;;;94.35;40.63;;;;;;;24.59;76.79;100435.75;8334616;28;20041;-62
2023/05/22 13:55:09;;;;;;;88.47;40.35;;;;;;;24.47;79.50;100426.56;8334858;28;20033;-62
2023/05/22 13:59:09;;;;;;;89.80;41.85;;;;;;;24.53;81.07;100442.22;8331748;28;20169;-60
2023/05/22 14:03:15;;;;;;;90.22;40.78;;;;;;;24.48;77.66;100439.31;8343337;28;20446;-60
2023/05/22 14:07:16;;;;;;;96.18;42.30;;;;;;;24.76;77.52;100440.44;8379920;28;20131;-60
2023/05/22 14:11:16;;;;;;;85.82;41.13;;;;;;;24.66;77.32;100453.13;8319613;28;20041;-59
2023/05/22 14:15:17;;;;;;;97.75;42.88;;;;;;;24.35;78.05;100447.78;8315965;28;20037;-60
2023/05/22 14:19:18;;;;;;;94.93;42.58;;;;;;;24.52;78.13;100446.09;8327403;28;20524;-60
2023/05/22 14:23:19;;;;;;;86.47;41.47;;;;;;;24.44;77.87;100443.63;8322558;28;20352;-60
2023/05/22 14:27:19;;;;;;;105.97;43.27;;;;;;;24.37;77.87;100445.63;8313930;28;20492;-60
2023/05/22 14:31:19;;;;;;;95.97;44.22;;;;;;;24.37;79.01;100437.34;8313793;28;20668;-60
2023/05/22 14:35:20;;;;;;;99.53;43.75;;;;;;;24.42;77.60;100434.69;8317290;28;20041;-60
2023/05/22 14:39:21;;;;;;;104.80;44.47;;;;;;;24.62;81.15;100435.31;8334077;28;20128;-60
2023/05/22 14:43:21;;;;;;;101.00;43.90;;;;;;;24.55;77.15;100431.78;8337826;28;20041;-60
2023/05/22 14:47:22;;;;;;;103.43;45.95;;;;;;;24.35;77.56;100423.75;8335847;28;20045;-60
2023/05/22 14:51:22;;;;;;;101.53;46.17;;;;;;;24.10;78.95;100425.78;8336444;28;20232;-60
2023/05/22 14:55:26;;;;;;;99.28;47.00;;;;;;;24.06;80.44;100418.16;8335396;28;20040;-60
2023/05/22 14:59:26;;;;;;;103.93;46.00;;;;;;;24.24;81.03;100420.94;8321100;28;20076;-60
2023/05/22 15:03:27;;;;;;;108.68;46.72;;;;;;;24.18;79.26;100422.69;8321360;28;20042;-60
2023/05/22 15:07:27;;;;;;;114.57;47.88;;;;;;;24.20;80.36;100425.22;8322853;28;20060;-60
2023/05/22 15:11:28;;;;;;;110.68;49.90;;;;;;;23.96;79.04;100417.84;8338037;28;20526;-60
2023/05/22 15:15:28;;;;;;;109.93;50.38;;;;;;;23.91;79.48;100409.38;8335495;28;20211;-60
2023/05/22 15:19:29;;;;;;;105.65;48.15;;;;;;;24.02;81.11;100411.41;8336869;28;20064;-60
2023/05/22 15:23:29;;;;;;;120.55;50.50;;;;;;;24.04;81.62;100406.50;8337199;28;20041;-60
2023/05/22 15:27:30;;;;;;;108.72;46.80;;;;;;;24.27;80.94;100403.84;8348044;28;20487;-60
2023/05/22 15:31:31;;;;;;;117.32;49.83;;;;;;;24.27;80.97;100399.19;8340773;28;20111;-60
2023/05/22 15:35:31;;;;;;;97.68;48.10;;;;;;;24.23;78.24;100397.13;8336565;28;20500;-60
2023/05/22 15:39:32;;;;;;;101.15;47.15;;;;;;;24.18;78.35;100383.16;8312016;28;20068;-61
2023/05/22 15:43:32;;;;;;;113.15;50.55;;;;;;;24.01;80.00;100395.91;8341592;28;20040;-60
2023/05/22 15:47:33;;;;;;;109.13;50.85;;;;;;;23.90;78.86;100391.09;8323016;28;20037;-60
2023/05/22 15:51:34;;;;;;;107.38;47.83;;;;;;;23.78;79.12;100387.44;8330088;28;20762;-60
2023/05/22 15:55:35;;;;;;;102.72;51.13;;;;;;;23.78;79.67;100381.91;8316158;28;20526;-60
2023/05/22 15:59:36;;;;;;;97.28;48.47;;;;;;;23.92;80.03;100392.59;8316499;28;20038;-62
2023/05/22 16:03:36;;;;;;;105.63;49.25;;;;;;;23.85;79.81;100382.69;8319131;28;20037;-62
2023/05/22 16:07:37;;;;;;;100.07;49.88;;;;;;;23.88;80.00;100382.22;8315920;28;20091;-62
2023/05/22 16:11:37;;;;;;;96.75;49.20;;;;;;;23.95;81.06;100377.50;8316567;28;20048;-62
2023/05/22 16:15:39;;;;;;;100.63;50.15;;;;;;;23.89;80.99;100387.50;8318011;28;20041;-62
2023/05/22 16:19:39;;;;;;;102.32;52.33;;;;;;;23.71;82.16;100386.66;8312666;28;20063;-62
2023/05/22 16:23:40;;;;;;;96.97;48.92;;;;;;;23.68;82.34;100392.63;8298704;28;20041;-62
2023/05/22 16:27:40;;;;;;;102.80;51.78;;;;;;;23.69;81.80;100397.09;8315520;28;20227;-62
2023/05/22 16:31:41;;;;;;;99.45;52.08;;;;;;;23.56;81.58;100402.72;8321333;28;20060;-62
2023/05/22 16:35:45;;;;;;;106.57;54.40;;;;;;;23.49;82.02;100393.69;8324593;28;20046;-62
2023/05/22 16:39:46;;;;;;;98.90;52.00;;;;;;;23.45;82.59;100406.25;8309123;28;20033;-62
2023/05/22 16:43:46;;;;;;;104.88;53.42;;;;;;;23.43;83.86;100391.81;8305847;28;20229;-62
2023/05/22 16:47:46;;;;;;;99.43;53.95;;;;;;;23.47;82.74;100395.81;8302012;28;20076;-62
2023/05/22 16:51:47;;;;;;;96.95;52.97;;;;;;;23.47;83.46;100406.84;8305324;28;20048;-62
2023/05/22 16:55:47;;;;;;;105.38;54.00;;;;;;;23.44;83.71;100401.78;8319117;28;20073;-62
2023/05/22 16:59:48;;;;;;;96.80;52.47;;;;;;;23.39;83.95;100402.47;8313326;28;20071;-62
2023/05/22 17:03:48;;;;;;;96.82;52.15;;;;;;;23.33;84.85;100405.31;8308742;28;20276;-62
2023/05/22 17:07:49;;;;;;;102.45;53.25;;;;;;;23.33;84.01;100410.81;8312353;28;20049;-62
2023/05/22 17:11:49;;;;;;;103.87;54.10;;;;;;;23.40;83.44;100406.06;8305712;28;20357;-62
2023/05/22 17:15:50;;;;;;;97.97;52.67;;;;;;;23.35;83.84;100408.66;8303895;28;20292;-62
2023/05/22 17:19:51;;;;;;;91.32;53.30;;;;;;;23.27;83.24;100422.75;8318686;28;20072;-62
2023/05/22 17:23:51;;;;;;;91.60;51.75;;;;;;;23.31;84.46;100418.47;8332639;28;20037;-62
2023/05/22 17:27:52;;;;;;;94.37;52.33;;;;;;;23.39;83.30;100415.44;8317870;28;20052;-62
2023/05/22 17:31:52;;;;;;;91.30;51.03;;;;;;;23.24;83.43;100423.19;8316834;28;20292;-63
2023/05/22 17:35:53;;;;;;;98.00;52.97;;;;;;;23.01;83.74;100421.88;8331360;28;20056;-62
2023/05/22 17:39:53;;;;;;;91.93;52.80;;;;;;;22.91;84.47;100423.41;8317118;28;20280;-62
2023/05/22 17:43:55;;;;;;;89.38;50.35;;;;;;;22.80;84.32;100430.50;8318172;28;20147;-63
2023/05/22 17:47:56;;;;;;;94.85;50.70;;;;;;;22.70;84.94;100435.66;8350801;28;20045;-63
2023/05/22 17:51:56;;;;;;;87.85;50.25;;;;;;;22.55;86.00;100435.09;8350494;28;20060;-62
2023/05/22 17:55:57;;;;;;;85.75;48.40;;;;;;;22.54;85.97;100444.41;8351451;28;20519;-62
2023/05/22 17:59:57;;;;;;;91.68;49.42;;;;;;;22.58;86.75;100444.81;8351064;28;20116;-63
2023/05/22 18:03:59;;;;;;;83.40;49.63;;;;;;;22.55;85.06;100446.13;8350126;28;20454;-60
2023/05/22 18:08:00;;;;;;;88.00;48.28;;;;;;;22.50;85.63;100454.19;8351331;28;20037;-60
2023/05/22 18:12:02;;;;;;;80.47;48.05;;;;;;;22.51;85.07;100444.84;8353512;28;20041;-60
2023/05/22 18:16:02;;;;;;;84.13;46.92;;;;;;;22.47;85.81;100459.25;8357759;28;20369;-60
2023/05/22 18:20:06;;;;;;;81.68;46.72;;;;;;;22.37;86.09;100453.38;8357161;28;20394;-60